Huvudsida
METAR-TAF:

METAR-TAF

Flygplatser :

Buckland, Alaska, USA

latitud: 65-58-56N, longitud: 161-09-07W, höjd: 7 m

Aktuellt väderrapport

Denna rapport gjordes för 1 timme och 3 minuter sedan, klockan 22:56 UTC
Vind 10 kt från nordväst
Temperatur 16°C
Fuktighet 42%
Tryck 1015 hPa
Sikt: 16.1 km
Klar himmel

METAR: PABL 172256Z AUTO 32010KT 10SM CLR 16/03 A2997 RMK AO2 SLP150 T01610028

Tid: 15:59 (23:59 UTC)


TAF: saknas

Aktuella väderrapporter och prognoser från 4000 flygplatser (METAR- och TAF-rapporter).

De tillgängliga stationerna syns som gula och röda prickar på kartan.

För musen över prickarna för att se namnen på stationerna.

Klicka sedan för att få väderrapporter och prognoser.

För att ändra kartan: Klicka på de gröna knapparna med ett svart kors på för att zooma in; den gröna knappen med ett streck på för att zooma ut; eller på de gröna pilarna för angränsande kartor.


METAR-TAF: